createdAt,value
2023-03-19T00:01:10.094Z,8.52
2023-03-19T00:03:37.853Z,7.57
2023-03-19T00:06:05.867Z,6.75
2023-03-19T00:08:33.629Z,5.25
2023-03-19T00:11:07.487Z,5.72
2023-03-19T00:13:35.816Z,5.55
2023-03-19T00:16:03.503Z,6.20
2023-03-19T00:18:32.704Z,5.68
2023-03-19T00:21:00.552Z,5.68
2023-03-19T00:23:28.220Z,5.57
2023-03-19T00:25:55.960Z,6.10
2023-03-19T00:28:23.617Z,7.13
2023-03-19T00:30:51.489Z,5.53
2023-03-19T00:33:20.731Z,6.80
2023-03-19T00:35:49.921Z,7.38
2023-03-19T00:38:17.584Z,6.10
2023-03-19T00:40:45.241Z,5.75
2023-03-19T00:43:12.887Z,6.95
2023-03-19T00:45:41.381Z,8.35
2023-03-19T00:48:09.111Z,9.93
2023-03-19T00:50:36.926Z,7.63
2023-03-19T00:53:05.985Z,7.07
2023-03-19T00:55:33.893Z,6.57
2023-03-19T00:58:01.790Z,7.70
2023-03-19T01:00:29.664Z,9.73
2023-03-19T01:03:00.147Z,10.02
2023-03-19T01:05:28.194Z,7.15
2023-03-19T01:07:56.248Z,7.85
2023-03-19T01:10:26.131Z,6.28
2023-03-19T01:12:53.848Z,10.13
2023-03-19T01:17:48.228Z,9.00
2023-03-19T01:20:18.677Z,8.55
2023-03-19T01:22:47.344Z,7.13
2023-03-19T01:25:16.056Z,8.63
2023-03-19T01:27:45.270Z,9.65
2023-03-19T01:30:13.457Z,8.02
2023-03-19T01:32:41.210Z,9.85
2023-03-19T01:35:09.618Z,10.60
2023-03-19T01:37:37.502Z,9.55
2023-03-19T01:40:06.592Z,8.43
2023-03-19T01:42:34.703Z,8.52
2023-03-19T01:45:05.188Z,10.48
2023-03-19T01:47:35.717Z,10.80
2023-03-19T01:50:03.746Z,7.18
2023-03-19T01:52:34.778Z,9.57
2023-03-19T01:55:07.356Z,8.55
2023-03-19T01:57:35.103Z,9.23
2023-03-19T02:00:08.694Z,7.88
2023-03-19T02:02:37.813Z,6.65
2023-03-19T02:05:09.269Z,9.30
2023-03-19T02:07:39.863Z,10.23
2023-03-19T02:10:10.403Z,9.15
2023-03-19T02:12:38.488Z,9.88
2023-03-19T02:15:09.409Z,9.63
2023-03-19T02:17:37.217Z,9.15
2023-03-19T02:20:13.211Z,8.38
2023-03-19T02:22:49.433Z,8.48
2023-03-19T02:25:25.364Z,9.40
2023-03-19T02:27:55.004Z,8.90
2023-03-19T02:30:26.634Z,7.65
2023-03-19T02:32:54.542Z,7.17
2023-03-19T02:35:22.335Z,9.40
2023-03-19T02:37:50.306Z,8.05
2023-03-19T02:40:23.733Z,7.80
2023-03-19T02:42:51.483Z,8.43
2023-03-19T02:45:21.279Z,8.65
2023-03-19T02:47:49.013Z,10.82
2023-03-19T02:50:16.738Z,8.57
2023-03-19T02:52:44.358Z,10.07
2023-03-19T02:55:12.060Z,11.32
2023-03-19T02:57:39.686Z,12.60
2023-03-19T03:00:09.061Z,11.13
2023-03-19T03:02:38.552Z,8.80
2023-03-19T03:05:06.788Z,9.30
2023-03-19T03:07:34.585Z,9.38
2023-03-19T03:10:02.301Z,8.00
2023-03-19T03:12:29.944Z,7.82
2023-03-19T03:14:57.646Z,7.88
2023-03-19T03:17:26.951Z,9.23
2023-03-19T03:19:56.029Z,9.07
2023-03-19T03:22:23.788Z,7.65
2023-03-19T03:24:51.426Z,7.22
2023-03-19T03:27:19.065Z,8.95
2023-03-19T03:29:46.908Z,7.53
2023-03-19T03:32:15.018Z,8.15
2023-03-19T03:34:42.873Z,8.70
2023-03-19T03:37:12.229Z,8.00
2023-03-19T03:39:39.908Z,9.90
2023-03-19T03:42:08.019Z,8.80
2023-03-19T03:44:36.162Z,7.43
2023-03-19T03:47:04.535Z,9.77
2023-03-19T03:49:32.233Z,7.90
2023-03-19T03:51:59.931Z,10.27
2023-03-19T03:54:28.999Z,11.00
2023-03-19T03:56:56.706Z,10.00
2023-03-19T03:59:25.288Z,9.57
2023-03-19T04:01:52.952Z,10.88
2023-03-19T04:04:21.152Z,9.85
2023-03-19T04:06:48.952Z,11.50
2023-03-19T04:09:17.159Z,10.82
2023-03-19T04:11:46.231Z,11.57
2023-03-19T04:14:13.906Z,12.82
2023-03-19T04:16:42.158Z,13.65
2023-03-19T04:19:09.966Z,11.43
2023-03-19T04:21:37.715Z,11.90
2023-03-19T04:24:06.004Z,11.52
2023-03-19T04:26:33.809Z,11.00
2023-03-19T04:29:02.780Z,11.88
2023-03-19T04:31:30.724Z,11.48
2023-03-19T04:33:58.525Z,10.93
2023-03-19T04:36:26.579Z,13.65
2023-03-19T04:38:54.226Z,12.23
2023-03-19T04:41:22.607Z,10.95
2023-03-19T04:43:50.250Z,10.93
2023-03-19T04:46:19.277Z,9.07
2023-03-19T04:48:46.953Z,11.70
2023-03-19T04:51:14.922Z,11.88
2023-03-19T04:53:42.572Z,12.50
2023-03-19T04:56:10.316Z,11.43
2023-03-19T04:58:38.117Z,10.68
2023-03-19T05:01:06.184Z,9.82
2023-03-19T05:03:35.324Z,7.28
2023-03-19T05:06:03.063Z,7.43
2023-03-19T05:08:30.873Z,8.40
2023-03-19T05:10:59.211Z,7.90
2023-03-19T05:13:26.885Z,12.98
2023-03-19T05:15:55.992Z,9.90
2023-03-19T05:18:24.048Z,9.98
2023-03-19T05:20:53.338Z,9.60
2023-03-19T05:23:21.621Z,8.57
2023-03-19T05:25:49.323Z,8.93
2023-03-19T05:28:17.165Z,9.60
2023-03-19T05:30:45.491Z,7.45
2023-03-19T05:33:13.369Z,7.78
2023-03-19T05:35:41.193Z,9.20
2023-03-19T05:38:11.154Z,8.18
2023-03-19T05:40:41.903Z,10.15
2023-03-19T05:43:10.560Z,9.13
2023-03-19T05:45:38.909Z,8.80
2023-03-19T05:48:07.198Z,9.43
2023-03-19T05:50:35.189Z,7.97
2023-03-19T05:53:03.378Z,9.70
2023-03-19T05:55:32.434Z,8.60
2023-03-19T05:58:00.120Z,9.15
2023-03-19T06:00:28.056Z,10.70
2023-03-19T06:02:55.855Z,11.73
2023-03-19T06:05:23.890Z,9.90
2023-03-19T06:07:51.552Z,11.57
2023-03-19T06:10:19.333Z,8.05
2023-03-19T06:12:48.328Z,7.70
2023-03-19T06:15:16.967Z,9.45
2023-03-19T06:17:45.329Z,9.23
2023-03-19T06:20:14.199Z,11.32
2023-03-19T06:22:41.899Z,10.77
2023-03-19T06:25:09.797Z,10.43
2023-03-19T06:27:37.603Z,9.30
2023-03-19T06:30:09.067Z,10.27
2023-03-19T06:32:37.192Z,9.98
2023-03-19T06:35:05.467Z,15.65
2023-03-19T06:37:33.566Z,11.55
2023-03-19T06:40:01.386Z,11.77
2023-03-19T06:42:29.174Z,10.63
2023-03-19T06:44:56.895Z,10.10
2023-03-19T06:47:26.104Z,9.88
2023-03-19T06:49:55.051Z,11.60
2023-03-19T06:52:22.715Z,11.73
2023-03-19T06:54:50.616Z,9.82
2023-03-19T06:57:18.301Z,10.73
2023-03-19T06:59:46.265Z,10.32
2023-03-19T07:02:14.355Z,10.25
2023-03-19T07:04:43.346Z,11.23
2023-03-19T07:07:11.337Z,13.82
2023-03-19T07:09:39.076Z,15.63
2023-03-19T07:12:07.306Z,13.73
2023-03-19T07:14:35.518Z,13.68
2023-03-19T07:17:03.628Z,16.90
2023-03-19T07:19:31.327Z,13.52
2023-03-19T07:22:00.345Z,12.85
2023-03-19T07:24:27.989Z,15.65
2023-03-19T07:26:56.657Z,17.02
2023-03-19T07:29:24.369Z,11.80
2023-03-19T07:31:52.111Z,11.60
2023-03-19T07:34:19.859Z,13.52
2023-03-19T07:36:48.719Z,14.50
2023-03-19T07:39:18.065Z,12.40
2023-03-19T07:41:47.731Z,10.52
2023-03-19T07:44:15.930Z,12.50
2023-03-19T07:46:44.075Z,8.40
2023-03-19T07:49:11.871Z,8.65
2023-03-19T07:51:39.576Z,10.10
2023-03-19T07:54:07.694Z,10.52
2023-03-19T07:56:37.242Z,11.20
2023-03-19T07:59:04.949Z,10.43
2023-03-19T08:01:35.970Z,10.90
2023-03-19T08:04:03.789Z,10.27
2023-03-19T08:06:31.539Z,9.70
2023-03-19T08:08:59.228Z,10.73
2023-03-19T08:11:27.027Z,10.10
2023-03-19T08:13:56.162Z,11.23
2023-03-19T08:16:24.003Z,10.40
2023-03-19T08:18:52.625Z,12.00
2023-03-19T08:21:20.394Z,12.18
2023-03-19T08:23:48.371Z,12.48
2023-03-19T08:26:16.645Z,10.70
2023-03-19T08:28:44.450Z,11.35
2023-03-19T08:31:15.435Z,10.10
2023-03-19T08:33:43.389Z,11.18
2023-03-19T08:36:14.189Z,11.90
2023-03-19T08:38:42.056Z,10.70
2023-03-19T08:41:10.589Z,10.38
2023-03-19T08:43:38.798Z,10.35
2023-03-19T08:46:06.893Z,11.10
2023-03-19T08:48:35.983Z,11.93
2023-03-19T08:51:04.435Z,10.50
2023-03-19T08:53:33.349Z,10.70
2023-03-19T08:56:02.993Z,11.00
2023-03-19T08:58:31.142Z,12.40
2023-03-19T09:01:05.357Z,13.07
2023-03-19T09:03:33.423Z,13.73
2023-03-19T09:06:03.595Z,14.15
2023-03-19T09:08:32.733Z,13.50
2023-03-19T09:11:00.957Z,13.48
2023-03-19T09:13:31.712Z,9.93
2023-03-19T09:15:59.542Z,9.40
2023-03-19T09:18:27.396Z,10.10
2023-03-19T09:20:55.821Z,9.63
2023-03-19T09:23:25.547Z,11.27
2023-03-19T09:25:53.284Z,9.93
2023-03-19T09:28:21.969Z,9.63
2023-03-19T09:30:52.904Z,11.57
2023-03-19T09:33:22.363Z,12.60
2023-03-19T09:35:52.522Z,11.45
2023-03-19T09:38:21.020Z,11.50
2023-03-19T09:41:02.477Z,12.18
2023-03-19T09:43:46.623Z,13.60
2023-03-19T09:46:22.512Z,14.35
2023-03-19T09:48:56.524Z,14.05
2023-03-19T09:51:31.634Z,16.48
2023-03-19T09:54:02.179Z,16.90
2023-03-19T09:56:37.312Z,14.23
2023-03-19T09:59:05.143Z,20.13
2023-03-19T10:01:45.090Z,13.80
2023-03-19T10:04:51.755Z,15.32
2023-03-19T10:07:38.649Z,12.60
2023-03-19T10:10:26.976Z,10.38
2023-03-19T10:13:09.163Z,12.82
2023-03-19T10:15:39.528Z,10.55
2023-03-19T10:18:13.600Z,10.98
2023-03-19T10:20:49.329Z,11.38
2023-03-19T10:23:30.171Z,10.25
2023-03-19T10:26:00.038Z,11.10
2023-03-19T10:28:33.130Z,11.93
2023-03-19T10:31:14.335Z,10.77
2023-03-19T10:33:46.495Z,10.80
2023-03-19T10:36:16.190Z,9.20
2023-03-19T10:38:44.962Z,9.77
2023-03-19T10:41:43.848Z,9.02
2023-03-19T10:44:22.998Z,9.45
2023-03-19T10:46:51.355Z,8.88
2023-03-19T10:49:19.410Z,9.52
2023-03-19T10:51:47.753Z,9.00
2023-03-19T10:54:25.347Z,9.30
2023-03-19T10:56:56.859Z,9.35
2023-03-19T10:59:32.908Z,10.50
2023-03-19T11:02:16.728Z,9.30
2023-03-19T11:04:44.574Z,8.52
2023-03-19T11:07:14.081Z,8.93
2023-03-19T11:09:43.886Z,8.73
2023-03-19T11:12:20.652Z,7.75
2023-03-19T11:14:52.462Z,8.77
2023-03-19T11:17:24.374Z,7.88
2023-03-19T11:19:54.760Z,7.18
2023-03-19T11:22:24.506Z,7.75
2023-03-19T11:24:55.522Z,5.63
2023-03-19T11:27:31.491Z,5.10
2023-03-19T11:30:00.703Z,6.10
2023-03-19T11:33:10.071Z,8.90
2023-03-19T11:35:41.423Z,6.35
2023-03-19T11:38:16.247Z,6.32
2023-03-19T11:40:47.070Z,5.50
2023-03-19T11:43:45.497Z,5.22
2023-03-19T11:46:27.352Z,2.50
2023-03-19T11:49:22.790Z,2.20
2023-03-19T11:51:56.958Z,2.10
2023-03-19T11:54:31.785Z,2.67
2023-03-19T11:57:03.389Z,2.30
2023-03-19T11:59:49.347Z,2.60
2023-03-19T12:02:43.244Z,2.60
2023-03-19T12:05:20.834Z,3.50
2023-03-19T12:08:01.511Z,2.95
2023-03-19T12:10:38.477Z,4.00
2023-03-19T12:13:24.310Z,3.20
2023-03-19T12:16:00.990Z,3.55
2023-03-19T12:18:57.788Z,4.18
2023-03-19T12:21:31.636Z,3.92
2023-03-19T12:24:04.927Z,5.00
2023-03-19T12:26:46.112Z,4.72
2023-03-19T12:29:22.260Z,4.40
2023-03-19T12:32:15.025Z,4.40
2023-03-19T12:37:22.518Z,4.47
2023-03-19T12:40:01.909Z,4.10
2023-03-19T12:42:34.410Z,4.55
2023-03-19T12:45:04.913Z,4.20
2023-03-19T12:47:38.563Z,4.18
2023-03-19T12:50:10.897Z,4.30
2023-03-19T12:52:40.981Z,3.85
2023-03-19T12:55:18.482Z,4.40
2023-03-19T12:57:51.254Z,3.53
2023-03-19T13:00:26.439Z,4.47
2023-03-19T13:03:02.783Z,3.38
2023-03-19T13:05:37.590Z,3.42
2023-03-19T13:08:11.853Z,4.80
2023-03-19T13:10:39.661Z,3.83
2023-03-19T13:13:26.167Z,3.03
2023-03-19T13:15:58.168Z,2.65
2023-03-19T13:18:35.646Z,2.97
2023-03-19T13:21:20.754Z,4.03
2023-03-19T13:23:52.619Z,3.10
2023-03-19T13:26:20.712Z,3.03
2023-03-19T13:29:01.518Z,3.45
2023-03-19T13:31:30.450Z,3.90
2023-03-19T13:34:04.344Z,3.90
2023-03-19T13:36:39.222Z,2.85
2023-03-19T13:39:15.403Z,4.68
2023-03-19T13:41:53.621Z,3.28
2023-03-19T13:44:35.925Z,3.13
2023-03-19T13:47:05.755Z,4.45
2023-03-19T13:49:35.880Z,2.30
2023-03-19T13:52:50.560Z,3.88
2023-03-19T13:55:55.773Z,2.88
2023-03-19T13:58:43.719Z,3.35
2023-03-19T14:01:13.517Z,3.10
2023-03-19T14:03:54.379Z,2.90
2023-03-19T14:06:39.926Z,3.05
2023-03-19T14:09:38.562Z,4.03
2023-03-19T14:12:22.966Z,4.72
2023-03-19T14:14:54.807Z,3.78
2023-03-19T14:17:25.916Z,4.25
2023-03-19T14:19:54.951Z,3.70
2023-03-19T14:22:34.810Z,3.78
2023-03-19T14:25:17.838Z,2.28
2023-03-19T14:27:48.600Z,2.97
2023-03-19T14:30:30.897Z,5.07
2023-03-19T14:33:03.319Z,1.95
2023-03-19T14:35:36.802Z,3.08
2023-03-19T14:38:15.140Z,5.35
2023-03-19T14:40:46.598Z,4.53
2023-03-19T14:43:25.412Z,3.37
2023-03-19T14:46:01.361Z,3.60
2023-03-19T14:49:08.448Z,3.25
2023-03-19T14:51:59.857Z,2.75
2023-03-19T14:54:36.076Z,6.75
2023-03-19T14:57:16.992Z,6.68
2023-03-19T14:59:44.824Z,4.95
2023-03-19T15:02:23.722Z,4.05
2023-03-19T15:04:52.077Z,6.25
2023-03-19T15:07:22.815Z,4.30
2023-03-19T15:09:55.306Z,4.68
2023-03-19T15:12:35.810Z,6.07
2023-03-19T15:15:19.085Z,5.97
2023-03-19T15:17:54.391Z,5.72
2023-03-19T15:20:34.414Z,3.90
2023-03-19T15:23:07.169Z,7.15
2023-03-19T15:25:46.245Z,5.30
2023-03-19T15:28:18.643Z,5.22
2023-03-19T15:31:03.556Z,4.50
2023-03-19T15:33:44.671Z,5.68
2023-03-19T15:36:18.275Z,6.68
2023-03-19T15:38:49.421Z,4.38
2023-03-19T15:41:18.998Z,6.80
2023-03-19T15:43:48.568Z,5.88
2023-03-19T15:46:19.805Z,5.20
2023-03-19T15:48:52.515Z,7.72
2023-03-19T15:51:23.058Z,7.45
2023-03-19T15:53:51.173Z,7.47
2023-03-19T15:56:20.736Z,7.50
2023-03-19T15:58:53.550Z,5.18
2023-03-19T16:01:21.831Z,6.90
2023-03-19T16:03:53.083Z,6.60
2023-03-19T16:06:26.954Z,6.78
2023-03-19T16:08:57.527Z,5.65
2023-03-19T16:11:30.986Z,5.43
2023-03-19T16:14:01.970Z,6.47
2023-03-19T16:16:32.167Z,5.30
2023-03-19T16:19:00.858Z,4.88
2023-03-19T16:21:37.143Z,5.80
2023-03-19T16:24:12.031Z,5.97
2023-03-19T16:26:41.840Z,6.35
2023-03-19T16:29:20.612Z,6.60
2023-03-19T16:31:52.390Z,7.38
2023-03-19T16:34:42.394Z,6.82
2023-03-19T16:37:34.490Z,5.90
2023-03-19T16:40:04.130Z,8.35
2023-03-19T16:42:42.304Z,7.60
2023-03-19T16:45:26.157Z,8.32
2023-03-19T16:47:55.241Z,8.23
2023-03-19T16:50:29.210Z,8.80
2023-03-19T16:52:59.625Z,7.03
2023-03-19T16:55:29.747Z,9.68
2023-03-19T16:57:59.485Z,7.40
2023-03-19T17:00:31.959Z,8.45
2023-03-19T17:03:00.794Z,7.10
2023-03-19T17:05:30.103Z,9.80
2023-03-19T17:07:57.866Z,8.75
2023-03-19T17:10:28.788Z,9.98
2023-03-19T17:12:58.025Z,7.30
2023-03-19T17:15:31.390Z,10.77
2023-03-19T17:18:02.756Z,9.60
2023-03-19T17:20:35.533Z,7.95
2023-03-19T17:23:03.400Z,9.45
2023-03-19T17:25:31.112Z,10.55
2023-03-19T17:27:58.821Z,10.07
2023-03-19T17:30:28.684Z,9.63
2023-03-19T17:32:58.073Z,10.52
2023-03-19T17:35:26.313Z,10.27
2023-03-19T17:37:54.067Z,10.20
2023-03-19T17:40:25.316Z,15.95
2023-03-19T17:42:54.003Z,16.73
2023-03-19T17:45:27.491Z,17.42
2023-03-19T17:47:59.066Z,17.73
2023-03-19T17:50:31.309Z,15.20
2023-03-19T17:52:59.488Z,13.75
2023-03-19T17:55:29.514Z,17.60
2023-03-19T17:58:05.228Z,12.95
2023-03-19T18:00:49.747Z,11.90
2023-03-19T18:03:22.144Z,13.23
2023-03-19T18:08:23.597Z,11.93
2023-03-19T18:10:51.907Z,12.07
2023-03-19T18:13:19.829Z,12.90
2023-03-19T18:15:48.223Z,13.15
2023-03-19T18:18:21.343Z,17.10
2023-03-19T18:20:49.239Z,19.60
2023-03-19T18:23:17.351Z,19.38
2023-03-19T18:25:46.189Z,22.52
2023-03-19T18:28:14.442Z,21.95
2023-03-19T18:30:43.012Z,22.77
2023-03-19T18:33:16.423Z,24.45
2023-03-19T18:35:46.235Z,24.15
2023-03-19T18:38:17.823Z,21.50
2023-03-19T18:40:46.693Z,25.40
2023-03-19T18:43:16.443Z,24.00
2023-03-19T18:45:46.896Z,23.65
2023-03-19T18:48:27.080Z,23.73
2023-03-19T18:50:56.869Z,22.65
2023-03-19T18:53:28.207Z,22.88
2023-03-19T18:55:57.434Z,23.10
2023-03-19T18:58:28.614Z,24.50
2023-03-19T19:01:01.516Z,21.73
2023-03-19T19:03:33.465Z,22.60
2023-03-19T19:06:02.687Z,22.27
2023-03-19T19:08:31.317Z,25.27
2023-03-19T19:11:03.370Z,23.83
2023-03-19T19:13:46.290Z,24.38
2023-03-19T19:16:29.884Z,24.65
2023-03-19T19:19:00.336Z,24.73
2023-03-19T19:21:29.554Z,22.80
2023-03-19T19:23:57.395Z,24.42
2023-03-19T19:26:27.846Z,23.15
2023-03-19T19:31:42.650Z,24.70
2023-03-19T19:34:16.696Z,23.95
2023-03-19T19:36:44.549Z,24.83
2023-03-19T19:39:14.087Z,25.70
2023-03-19T19:41:43.631Z,26.45
2023-03-19T19:44:18.118Z,29.17
2023-03-19T19:46:45.876Z,27.13
2023-03-19T19:49:15.378Z,29.30
2023-03-19T19:51:43.573Z,27.50
2023-03-19T19:54:14.286Z,26.52
2023-03-19T19:56:42.552Z,27.30
2023-03-19T19:59:15.933Z,26.25
2023-03-19T20:01:43.713Z,26.10
2023-03-19T20:04:14.920Z,29.40
2023-03-19T20:06:42.679Z,27.48
2023-03-19T20:09:10.332Z,29.92
2023-03-19T20:11:39.831Z,26.35
2023-03-19T20:14:13.173Z,30.00
2023-03-19T20:16:40.995Z,30.48
2023-03-19T20:19:17.694Z,27.35
2023-03-19T20:21:45.353Z,28.13
2023-03-19T20:24:13.291Z,26.55
2023-03-19T20:26:43.201Z,26.10
2023-03-19T20:29:15.642Z,28.20
2023-03-19T20:34:25.522Z,28.73
2023-03-19T20:37:00.879Z,26.23
2023-03-19T20:39:28.522Z,25.60
2023-03-19T20:41:57.654Z,24.60
2023-03-19T20:44:26.675Z,22.88
2023-03-19T20:46:56.582Z,22.63
2023-03-19T20:49:24.458Z,21.15
2023-03-19T20:51:52.163Z,22.35
2023-03-19T20:54:19.903Z,23.05
2023-03-19T20:56:48.639Z,26.17
2023-03-19T20:59:21.187Z,37.85
2023-03-19T21:01:48.972Z,22.77
2023-03-19T21:04:20.918Z,24.63
2023-03-19T21:06:53.440Z,23.55
2023-03-19T21:09:22.505Z,24.73
2023-03-19T21:11:54.869Z,23.98
2023-03-19T21:14:26.956Z,22.13
2023-03-19T21:16:54.697Z,24.48
2023-03-19T21:19:23.113Z,24.30
2023-03-19T21:21:50.854Z,24.30
2023-03-19T21:24:20.877Z,24.13
2023-03-19T21:26:48.747Z,25.27
2023-03-19T21:29:22.502Z,23.55
2023-03-19T21:31:54.198Z,22.63
2023-03-19T21:34:21.956Z,22.70
2023-03-19T21:36:49.658Z,26.10
2023-03-19T21:39:17.642Z,22.30
2023-03-19T21:41:47.248Z,23.30
2023-03-19T21:44:18.153Z,21.95
2023-03-19T21:46:47.783Z,22.77
2023-03-19T21:49:17.843Z,21.45
2023-03-19T21:51:46.769Z,20.80
2023-03-19T21:54:15.675Z,21.70
2023-03-19T21:56:45.898Z,19.40
2023-03-19T21:59:15.600Z,23.00
2023-03-19T22:01:43.839Z,21.98
2023-03-19T22:04:12.210Z,19.10
2023-03-19T22:06:42.314Z,21.17
2023-03-19T22:09:10.033Z,20.70
2023-03-19T22:11:39.272Z,17.67
2023-03-19T22:14:13.175Z,19.83
2023-03-19T22:16:40.948Z,19.35
2023-03-19T22:19:13.114Z,18.75
2023-03-19T22:21:42.304Z,18.95
2023-03-19T22:24:10.112Z,20.10
2023-03-19T22:26:40.186Z,19.65
2023-03-19T22:29:14.647Z,19.38
2023-03-19T22:31:42.834Z,20.38
2023-03-19T22:34:15.389Z,18.92
2023-03-19T22:36:44.662Z,19.33
2023-03-19T22:39:12.751Z,18.98
2023-03-19T22:41:42.688Z,20.40
2023-03-19T22:44:19.060Z,21.63
2023-03-19T22:46:47.286Z,21.23
2023-03-19T22:49:17.628Z,20.50
2023-03-19T22:51:47.357Z,20.63
2023-03-19T22:54:15.602Z,21.83
2023-03-19T22:56:43.268Z,24.42
2023-03-19T22:59:11.021Z,23.92
2023-03-19T23:01:41.656Z,25.77
2023-03-19T23:04:20.332Z,24.73
2023-03-19T23:06:49.609Z,26.55
2023-03-19T23:09:19.434Z,26.85
2023-03-19T23:11:48.198Z,26.77
2023-03-19T23:14:28.498Z,26.70
2023-03-19T23:17:02.105Z,26.95
2023-03-19T23:19:31.593Z,26.00
2023-03-19T23:22:02.526Z,26.65
2023-03-19T23:24:31.047Z,27.75
2023-03-19T23:27:00.399Z,26.02
2023-03-19T23:29:31.133Z,26.23
2023-03-19T23:31:58.879Z,25.73
2023-03-19T23:34:26.938Z,27.33
2023-03-19T23:36:54.666Z,24.95
2023-03-19T23:39:23.990Z,24.60
2023-03-19T23:41:55.726Z,27.35
2023-03-19T23:44:23.481Z,26.67
2023-03-19T23:46:52.409Z,25.02
2023-03-19T23:49:28.580Z,25.02
2023-03-19T23:51:57.337Z,23.02
2023-03-19T23:54:32.286Z,23.77
2023-03-19T23:57:02.263Z,23.70
2023-03-19T23:59:34.232Z,25.45
